Ekwok, AK (99580)

1:29 PM AKDT on April 24, 2017 (GMT -0800)
New Stuyahok AP, New Stuyahok | | Change Station

Elev 302 ft 59.45 °N, 157.33 °W | Updated 33 minutes ago

Overcast
Overcast
44 °F
Feels Like 39 °F
N
10
Wind Variable Wind from ESE

Today
High -- | Low -- °F
--% Chance of Precip.
Yesterday
High -- | Low -- °F
Precip. -- in
Pressure 29.53 in
Visibility 10.0 miles
Clouds Mostly Cloudy 2200 ft
Overcast 4200 ft
Windchill 39 °F
Dew Point 36 °F
Humidity 73%
Rainfall 0.01 in
Snow Depth Not available.
6:48 AM 10:09 PM
Waning Crescent, 4% visible
METAR PANW 242056Z AUTO 11009KT 10SM -RA BKN022 OVC042 07/02 A2948 RMK AO2 RAB18 SLP998 P0000 60000 T00670022 55002
Pressure 29.53 in
Visibility 10.0 miles
Clouds Mostly Cloudy 2200 ft
Overcast 4200 ft
Windchill 39 °F
Dew Point 36 °F
Humidity 73%
Rainfall 0.01 in
Snow Depth Not available.
6:48 AM 10:09 PM
Waning Crescent, 4% visible
METAR PANW 242056Z AUTO 11009KT 10SM -RA BKN022 OVC042 07/02 A2948 RMK AO2 RAB18 SLP998 P0000 60000 T00670022 55002

Get Severe Weather Alerts

Thanks for signing up!

Be on the lookout for a verification email in your inbox.

You'll start receiving the daily forecast at 8 AM.

×

10-Day Weather Forecast

Almanac

Astronomy

Apr. 24, 2017 Rise Set
Actual Time
Civil Twilight
Nautical Twilight
Astronomical Twilight
Moon
Length of Visible Light
Length of Day
Tomorrow will be .
, % of the Moon is Illuminated

Today's Extremes

State Highs State Lows

Community

WunderPhotos

WunderBlog® & News

Nearby

Air Quality

  Air Quality AQ Index Pollutant
Not available.

Snow Depth

Station Depth Elevation

Earthquake Activity

City Distance Mag. Time & Date
Minimum magnitude displayed is 2.5.

Coastal Water Temperatures

Place Temperature

Stations

Nearby Weather Stations

Station Location Temp. Windchill Dew Point Humidity Wind Precip. Elev Updated Type
                   

Watches & Warnings

There are currently no watches in effect.